Time;durP1;ratioP1;P1;durP2;ratioP2;P2;SDS_P1;SDS_P2;PMS_P1;PMS_P2;Temp;Humidity;BMP_temperature;BMP_pressure;BME280_temperature;BME280_humidity;BME280_pressure;Samples;Min_cycle;Max_cycle;Signal;HPM_P1;HPM_P2
2022/09/01 00:02:17;;;;;;;1.48;1.17;;;19.00;61.30;21.10;94020.00;;;;10460587;28;45454;-55
2022/09/01 00:07:37;;;;;;;1.90;1.23;;;19.00;61.20;21.10;94032.00;;;;10429709;28;45233;-56
2022/09/01 00:12:59;;;;;;;1.75;1.30;;;19.00;61.20;21.10;94026.00;;;;10458274;28;45833;-58
2022/09/01 00:18:20;;;;;;;1.98;1.17;;;19.00;61.20;21.10;94010.00;;;;10471687;28;45815;-57
2022/09/01 00:23:40;;;;;;;2.30;1.20;;;19.00;61.10;21.10;94023.00;;;;10451126;28;45429;-57
2022/09/01 00:29:03;;;;;;;1.30;1.10;;;19.00;61.90;21.10;94019.00;;;;10437403;28;45833;-57
2022/09/01 00:34:23;;;;;;;1.85;1.40;;;19.00;61.00;21.10;94015.00;;;;10428990;28;45490;-55
2022/09/01 00:39:44;;;;;;;2.30;1.35;;;19.00;61.10;21.10;93999.00;;;;10428714;28;45151;-55
2022/09/01 00:45:10;;;;;;;1.48;1.23;;;19.00;61.00;21.10;94002.00;;;;10428687;28;45261;-57
2022/09/01 00:50:30;;;;;;;1.60;1.30;;;19.00;60.90;21.10;94000.00;;;;10428218;28;45235;-56
2022/09/01 00:55:51;;;;;;;1.33;1.05;;;19.00;60.90;21.10;94001.00;;;;10448365;28;45253;-57
2022/09/01 01:01:14;;;;;;;1.30;1.20;;;19.00;61.00;21.10;93990.00;;;;10454424;28;45263;-57
2022/09/01 01:06:34;;;;;;;1.75;1.20;;;19.00;61.00;21.10;93993.00;;;;10436547;28;45537;-57
2022/09/01 01:11:56;;;;;;;1.55;1.13;;;19.00;60.80;21.10;94000.00;;;;10427758;28;45191;-57
2022/09/01 01:17:20;;;;;;;1.60;1.20;;;19.00;60.90;21.10;93995.00;;;;10427809;28;45473;-57
2022/09/01 01:23:04;;;;;;;1.90;1.30;;;19.00;60.80;21.10;94004.00;;;;10435657;28;45775;-57
2022/09/01 01:28:30;;;;;;;2.15;1.38;;;19.00;60.80;21.10;94003.00;;;;10435515;28;45153;-57
2022/09/01 01:33:55;;;;;;;1.63;1.25;;;18.90;60.80;21.10;93986.00;;;;10434520;28;45243;-56
2022/09/01 01:39:20;;;;;;;1.52;1.15;;;18.90;60.60;21.10;94004.00;;;;10466353;28;45239;-58
2022/09/01 01:44:41;;;;;;;2.10;1.40;;;19.00;60.70;21.10;94009.00;;;;10476195;28;45928;-56
2022/09/01 01:50:03;;;;;;;2.03;1.10;;;18.90;60.60;21.10;94009.00;;;;10476699;28;44958;-57
2022/09/01 01:55:27;;;;;;;2.22;1.20;;;18.90;60.50;21.10;94014.00;;;;10474285;28;45671;-57
2022/09/01 02:00:53;;;;;;;2.95;1.40;;;18.90;60.50;21.10;93997.00;;;;10472520;28;45298;-57
2022/09/01 02:06:14;;;;;;;1.60;1.30;;;18.90;60.50;21.10;94011.00;;;;10444256;28;45206;-56
2022/09/01 02:11:36;;;;;;;2.97;1.40;;;18.90;60.50;21.10;94002.00;;;;10464432;28;46075;-57
2022/09/01 02:17:01;;;;;;;1.38;1.20;;;18.90;60.40;21.10;94013.00;;;;10475097;28;45778;-56
2022/09/01 02:22:22;;;;;;;1.73;1.20;;;18.90;60.40;21.10;94003.00;;;;10474867;28;45878;-56
2022/09/01 02:27:43;;;;;;;2.50;1.25;;;18.90;60.40;21.00;94000.00;;;;10474774;28;45156;-57
2022/09/01 02:33:05;;;;;;;1.63;1.10;;;18.90;60.30;21.00;94006.00;;;;10455651;28;45978;-57
2022/09/01 02:38:32;;;;;;;1.63;1.13;;;18.90;60.30;21.10;94017.00;;;;10449618;28;45193;-56
2022/09/01 02:43:53;;;;;;;1.65;1.30;;;18.90;60.30;21.00;93986.00;;;;10474239;28;45155;-57
2022/09/01 02:49:20;;;;;;;1.60;1.10;;;18.90;60.30;21.00;93995.00;;;;10473938;28;45283;-57
2022/09/01 02:54:44;;;;;;;1.60;1.10;;;18.90;60.30;21.00;93997.00;;;;10472914;28;45702;-56
2022/09/01 03:00:19;;;;;;;2.20;1.30;;;18.90;60.10;21.00;94003.00;;;;10434303;28;45121;-57
2022/09/01 03:05:41;;;;;;;1.38;1.00;;;18.90;60.10;21.00;93990.00;;;;10447426;28;45563;-57
2022/09/01 03:11:03;;;;;;;1.85;1.30;;;18.90;60.20;21.00;94003.00;;;;10431796;28;45148;-57
2022/09/01 03:16:24;;;;;;;2.42;1.20;;;18.90;60.00;21.00;93996.00;;;;10461581;28;45819;-57
2022/09/01 03:21:47;;;;;;;2.45;1.23;;;18.90;60.00;21.00;93987.00;;;;10473558;28;46312;-57
2022/09/01 03:27:10;;;;;;;1.50;1.10;;;18.90;60.00;21.00;93983.00;;;;10472175;28;45342;-56
2022/09/01 03:32:31;;;;;;;1.63;1.20;;;18.90;60.00;21.00;93990.00;;;;10458417;28;45273;-56
2022/09/01 03:37:54;;;;;;;1.65;1.10;;;18.90;59.90;21.00;93992.00;;;;10439476;28;45877;-56
2022/09/01 03:43:16;;;;;;;1.50;1.08;;;18.90;60.00;21.00;93974.00;;;;10437863;28;45667;-56
2022/09/01 03:48:37;;;;;;;2.40;1.23;;;18.90;59.90;21.00;93990.00;;;;10448498;28;45776;-56
2022/09/01 03:54:00;;;;;;;2.45;1.30;;;18.90;59.80;21.00;93981.00;;;;10455977;28;45825;-57
2022/09/01 03:59:21;;;;;;;1.30;1.20;;;18.90;59.80;21.00;93990.00;;;;10446220;28;45170;-56
2022/09/01 04:04:41;;;;;;;2.20;1.08;;;18.90;59.80;21.00;93993.00;;;;10473296;28;45170;-55
2022/09/01 04:10:04;;;;;;;2.00;1.23;;;18.90;59.70;21.00;93986.00;;;;10446372;28;45754;-56
2022/09/01 04:15:26;;;;;;;1.60;1.17;;;18.90;59.70;21.00;93982.00;;;;10432892;28;45147;-57
2022/09/01 04:20:50;;;;;;;1.50;1.20;;;18.90;59.70;21.00;93979.00;;;;10432513;28;45758;-56
2022/09/01 04:26:19;;;;;;;2.08;1.42;;;18.90;59.70;21.00;93991.00;;;;10446256;28;45416;-56
2022/09/01 04:31:41;;;;;;;1.98;1.20;;;18.90;59.60;21.00;93990.00;;;;10432805;28;45293;-57
2022/09/01 04:37:02;;;;;;;2.00;1.40;;;18.90;59.60;21.00;93984.00;;;;10444798;28;45258;-56
2022/09/01 04:42:25;;;;;;;1.67;1.20;;;18.90;59.50;21.00;93984.00;;;;10448621;28;45130;-56
2022/09/01 04:47:46;;;;;;;1.17;0.93;;;18.90;59.50;21.00;93993.00;;;;10465861;28;45222;-56
2022/09/01 04:53:10;;;;;;;1.15;0.93;;;18.90;59.50;21.00;93977.00;;;;10456053;28;45794;-57
2022/09/01 04:58:33;;;;;;;1.63;1.20;;;18.90;59.50;21.00;93987.00;;;;10444468;28;46176;-56
2022/09/01 05:03:58;;;;;;;1.90;1.10;;;18.90;59.50;21.00;93975.00;;;;10460362;28;45161;-56
2022/09/01 05:09:20;;;;;;;1.80;1.10;;;18.90;59.40;21.00;93971.00;;;;10446239;28;45837;-56
2022/09/01 05:14:47;;;;;;;1.70;1.40;;;18.80;59.30;21.00;93983.00;;;;10446212;28;45082;-56
2022/09/01 05:20:09;;;;;;;1.47;1.03;;;18.90;59.30;21.00;93988.00;;;;10452467;28;45434;-55
2022/09/01 05:25:29;;;;;;;1.80;1.17;;;18.80;59.20;20.90;93982.00;;;;10444330;28;45198;-55
2022/09/01 05:30:53;;;;;;;2.22;1.27;;;18.80;59.10;21.00;93984.00;;;;10445362;28;45225;-56
2022/09/01 05:36:16;;;;;;;2.13;1.33;;;18.90;59.20;20.90;94003.00;;;;10467254;28;45205;-56
2022/09/01 05:41:38;;;;;;;1.70;1.17;;;18.90;59.20;21.00;93988.00;;;;10439707;28;45642;-56
2022/09/01 05:47:02;;;;;;;2.10;1.20;;;18.80;59.00;20.90;94005.00;;;;10458518;28;45327;-57
2022/09/01 05:52:25;;;;;;;2.00;1.33;;;18.90;59.10;21.00;94001.00;;;;10454811;28;45175;-56
2022/09/01 05:57:46;;;;;;;1.95;1.45;;;18.90;59.10;21.00;94002.00;;;;10424381;28;45594;-54
2022/09/01 06:03:10;;;;;;;1.55;0.90;;;18.80;58.90;20.90;94003.00;;;;10443266;28;45783;-54
2022/09/01 06:08:30;;;;;;;1.58;1.25;;;18.80;58.90;21.00;93989.00;;;;10450564;28;45714;-56
2022/09/01 06:13:51;;;;;;;2.67;1.38;;;18.80;59.10;20.90;94001.00;;;;10467601;28;45174;-56
2022/09/01 06:19:12;;;;;;;2.03;1.25;;;18.80;58.10;21.00;94002.00;;;;10449295;28;45862;-55
2022/09/01 06:24:33;;;;;;;2.03;1.30;;;18.90;58.00;20.90;93991.00;;;;10454013;28;45292;-56
2022/09/01 06:29:55;;;;;;;2.22;1.23;;;18.80;58.40;21.00;94011.00;;;;10442264;28;45207;-56
2022/09/01 06:35:17;;;;;;;2.58;1.48;;;18.90;58.50;20.90;94006.00;;;;10432230;28;45269;-56
2022/09/01 06:40:39;;;;;;;2.17;1.23;;;18.90;57.50;21.00;94012.00;;;;10450113;28;45270;-55
2022/09/01 06:46:02;;;;;;;1.48;1.00;;;18.90;58.00;21.00;94005.00;;;;10431897;28;45187;-56
2022/09/01 06:51:25;;;;;;;2.20;1.25;;;18.90;58.20;20.90;94014.00;;;;10431313;28;45233;-56
2022/09/01 06:56:46;;;;;;;1.60;1.20;;;18.80;58.30;21.00;94019.00;;;;10459032;28;45678;-56
2022/09/01 07:02:07;;;;;;;2.28;1.10;;;18.90;58.30;21.00;94024.00;;;;10447605;28;45138;-55
2022/09/01 07:07:32;;;;;;;1.85;1.00;;;18.90;58.40;21.00;94024.00;;;;10430669;28;45761;-56
2022/09/01 07:12:57;;;;;;;1.80;1.30;;;18.90;58.40;21.00;94021.00;;;;10431968;28;45429;-56
2022/09/01 07:18:20;;;;;;;1.60;1.05;;;18.80;58.40;21.00;94039.00;;;;10430942;28;45511;-56
2022/09/01 07:23:43;;;;;;;1.52;1.02;;;18.90;58.30;21.00;94039.00;;;;10430848;28;45857;-55
2022/09/01 07:29:05;;;;;;;1.98;1.02;;;18.90;58.30;21.00;94033.00;;;;10431410;28;45386;-57
2022/09/01 07:34:27;;;;;;;1.70;1.20;;;18.90;58.40;21.00;94036.00;;;;10431000;28;45142;-57
2022/09/01 07:39:49;;;;;;;1.70;0.90;;;18.90;58.40;21.00;94027.00;;;;10444476;28;45257;-56
2022/09/01 07:45:13;;;;;;;1.58;1.10;;;18.90;58.40;21.00;94036.00;;;;10430925;28;45848;-56
2022/09/01 07:50:35;;;;;;;1.92;1.05;;;18.90;58.40;21.00;94042.00;;;;10460834;28;45335;-57
2022/09/01 07:56:00;;;;;;;1.58;1.10;;;18.90;58.50;21.00;94051.00;;;;10471420;28;45205;-56
2022/09/01 08:01:23;;;;;;;1.10;0.90;;;18.90;58.40;21.00;94035.00;;;;10467951;28;45810;-56
2022/09/01 08:06:44;;;;;;;1.20;0.80;;;18.90;58.50;21.00;94040.00;;;;10429811;28;45807;-57
2022/09/01 08:12:07;;;;;;;0.98;0.88;;;18.90;58.50;21.00;94038.00;;;;10429418;28;45199;-57
2022/09/01 08:17:28;;;;;;;1.10;0.90;;;18.90;58.50;21.00;94040.00;;;;10428851;28;45172;-57
2022/09/01 08:22:49;;;;;;;1.50;1.15;;;18.90;58.40;21.10;94053.00;;;;10458969;28;45228;-57
2022/09/01 08:28:11;;;;;;;1.50;0.93;;;19.00;58.30;21.00;94044.00;;;;10470377;28;45835;-57
2022/09/01 08:33:33;;;;;;;1.45;0.75;;;18.90;58.30;21.00;94051.00;;;;10470110;28;45854;-57
2022/09/01 08:38:54;;;;;;;1.00;0.70;;;18.90;58.40;21.00;94052.00;;;;10469931;28;45238;-55
2022/09/01 08:44:30;;;;;;;1.58;0.80;;;18.90;58.40;21.00;94055.00;;;;10442852;28;45647;-58
2022/09/01 08:49:51;;;;;;;2.03;0.88;;;18.90;58.50;21.00;94044.00;;;;10428594;28;45734;-58
2022/09/01 08:55:19;;;;;;;1.42;0.73;;;18.90;58.60;21.00;94050.00;;;;10456856;28;45707;-58
2022/09/01 09:00:45;;;;;;;1.08;0.90;;;18.90;58.60;21.00;94031.00;;;;10469533;28;45274;-58
2022/09/01 09:06:15;;;;;;;0.90;0.70;;;18.90;58.40;21.00;94029.00;;;;10427786;28;45198;-57
2022/09/01 09:12:14;;;;;;;1.67;1.00;;;18.90;58.60;21.10;94048.00;;;;10458030;28;45797;-57
2022/09/01 09:17:43;;;;;;;1.67;0.90;;;19.00;58.00;21.10;94048.00;;;;10444634;28;45256;-56
2022/09/01 09:23:16;;;;;;;1.58;1.00;;;19.00;57.90;21.10;94046.00;;;;10427250;28;45204;-56
2022/09/01 09:28:38;;;;;;;2.05;1.05;;;18.90;58.40;21.10;94045.00;;;;10437153;28;45241;-56
2022/09/01 09:34:01;;;;;;;0.95;0.82;;;18.90;58.50;21.10;94038.00;;;;10428212;28;45225;-57
2022/09/01 09:39:22;;;;;;;2.50;1.02;;;18.90;58.20;21.10;94042.00;;;;10430852;28;45174;-57
2022/09/01 09:44:47;;;;;;;1.17;0.90;;;19.00;58.60;21.10;94043.00;;;;10454683;28;45248;-58
2022/09/01 09:50:23;;;;;;;2.33;1.10;;;19.00;57.70;21.10;94032.00;;;;10441930;28;45801;-57
2022/09/01 09:55:55;;;;;;;2.55;0.93;;;19.00;57.60;21.10;94033.00;;;;10460683;28;45464;-56
2022/09/01 10:01:30;;;;;;;1.33;0.85;;;19.00;57.40;21.10;94034.00;;;;10444570;28;45190;-56
2022/09/01 10:06:53;;;;;;;1.10;0.80;;;19.00;57.50;21.10;94025.00;;;;10434532;28;45175;-56
2022/09/01 10:12:14;;;;;;;1.33;0.90;;;19.10;57.40;21.20;94023.00;;;;10435229;28;45688;-56
2022/09/01 10:17:38;;;;;;;2.15;1.10;;;19.00;57.30;21.20;94034.00;;;;10433818;28;45206;-56
2022/09/01 10:23:02;;;;;;;1.80;1.15;;;19.10;57.30;21.20;94028.00;;;;10464650;28;45218;-56
2022/09/01 10:28:23;;;;;;;2.15;1.17;;;19.10;57.20;21.20;94012.00;;;;10474801;28;45144;-56
2022/09/01 10:33:44;;;;;;;4.68;1.30;;;19.00;57.30;21.20;94020.00;;;;10474471;28;45770;-56
2022/09/01 10:39:11;;;;;;;2.80;1.00;;;19.10;57.10;21.20;94016.00;;;;10472972;28;45220;-56
2022/09/01 10:44:35;;;;;;;1.63;1.02;;;19.10;57.20;21.10;94012.00;;;;10456411;28;45288;-56
2022/09/01 10:50:03;;;;;;;1.30;0.93;;;19.00;57.50;21.10;94014.00;;;;10432191;28;45378;-55
2022/09/01 10:55:35;;;;;;;3.13;0.93;;;19.00;57.40;21.10;94007.00;;;;10462243;28;45174;-56
2022/09/01 11:00:57;;;;;;;1.05;0.82;;;19.00;57.50;21.10;93997.00;;;;10474085;28;45754;-55
2022/09/01 11:07:00;;;;;;;1.02;0.80;;;19.00;57.60;21.10;93993.00;;;;10433888;28;45324;-56
2022/09/01 11:12:37;;;;;;;1.10;0.90;;;19.00;57.50;21.10;94009.00;;;;10438021;28;45305;-57
2022/09/01 11:17:59;;;;;;;2.15;1.00;;;19.00;57.70;21.10;94008.00;;;;10442442;28;45256;-58
2022/09/01 11:23:26;;;;;;;1.00;0.90;;;19.00;57.80;21.10;93993.00;;;;10431841;28;45178;-57
2022/09/01 11:28:49;;;;;;;2.22;1.17;;;19.00;57.80;21.20;94004.00;;;;10439135;28;45215;-55
2022/09/01 11:34:14;;;;;;;1.38;0.90;;;19.00;57.80;21.20;93987.00;;;;10437356;28;45273;-56
2022/09/01 11:39:42;;;;;;;2.00;1.17;;;19.10;57.80;21.20;93987.00;;;;10430976;28;45182;-56
2022/09/01 11:45:13;;;;;;;1.30;0.85;;;19.10;57.70;21.30;94000.00;;;;10449887;28;45893;-57
2022/09/01 11:50:36;;;;;;;8.00;2.30;;;19.20;57.30;21.30;93982.00;;;;10461679;28;45115;-57
2022/09/01 11:56:14;;;;;;;17.17;4.78;;;19.20;57.80;21.40;93989.00;;;;10472337;28;45433;-57
2022/09/01 12:01:38;;;;;;;12.60;4.03;;;19.30;57.00;21.40;93982.00;;;;10466401;28;45476;-57
2022/09/01 12:07:02;;;;;;;18.73;4.65;;;19.30;57.00;21.40;93977.00;;;;10429633;28;45265;-57
2022/09/01 12:12:32;;;;;;;12.75;3.58;;;19.30;56.90;21.50;93987.00;;;;10430021;28;45114;-57
2022/09/01 12:18:12;;;;;;;13.20;4.38;;;19.40;56.80;21.50;93991.00;;;;10436560;28;45233;-57
2022/09/01 12:23:35;;;;;;;10.52;3.72;;;19.40;56.80;21.50;93983.00;;;;10472249;28;45979;-56
2022/09/01 12:28:57;;;;;;;9.55;2.90;;;19.40;56.70;21.50;93995.00;;;;10472947;28;45276;-56
2022/09/01 12:34:29;;;;;;;11.85;3.83;;;19.40;56.50;21.50;93991.00;;;;10472101;28;45494;-56
2022/09/01 12:39:53;;;;;;;10.85;3.08;;;19.40;56.40;21.50;93991.00;;;;10458871;28;45771;-56
2022/09/01 12:45:14;;;;;;;9.05;3.00;;;19.40;56.50;21.50;94002.00;;;;10464922;28;45425;-56
2022/09/01 12:50:44;;;;;;;11.20;3.45;;;19.40;57.20;21.50;93992.00;;;;10433948;28;45460;-56
2022/09/01 12:56:25;;;;;;;12.95;4.35;;;19.40;56.60;21.50;93983.00;;;;10444799;28;45857;-56
2022/09/01 13:01:46;;;;;;;11.07;4.20;;;19.50;56.70;21.60;93986.00;;;;10465137;28;45777;-56
2022/09/01 13:07:08;;;;;;;12.32;2.88;;;19.50;56.50;21.60;93980.00;;;;10430023;28;45956;-56
2022/09/01 13:12:29;;;;;;;10.85;3.65;;;19.50;56.50;21.60;93983.00;;;;10444088;28;45507;-56
2022/09/01 13:17:50;;;;;;;10.43;3.40;;;19.50;56.50;21.50;93993.00;;;;10463486;28;45346;-56
2022/09/01 13:23:12;;;;;;;7.18;3.13;;;19.40;56.50;21.50;93982.00;;;;10445462;28;45477;-56
2022/09/01 13:28:32;;;;;;;9.70;3.05;;;19.40;56.80;21.50;93989.00;;;;10435933;28;45478;-56
2022/09/01 13:33:53;;;;;;;9.05;3.10;;;19.40;56.90;21.50;93989.00;;;;10449568;28;45225;-56
2022/09/01 13:39:15;;;;;;;9.32;2.97;;;19.40;56.80;21.50;93973.00;;;;10436211;28;45453;-58
2022/09/01 13:44:35;;;;;;;8.77;3.08;;;19.40;56.90;21.50;93981.00;;;;10459269;28;45134;-56
2022/09/01 13:49:56;;;;;;;7.88;2.97;;;19.40;57.00;21.60;93978.00;;;;10436257;28;45221;-56
2022/09/01 13:55:20;;;;;;;8.25;2.53;;;19.40;57.00;21.60;93960.00;;;;10465364;28;45242;-56
2022/09/01 14:00:44;;;;;;;5.00;2.30;;;19.50;56.90;21.60;93966.00;;;;10476571;28;46269;-55
2022/09/01 14:06:06;;;;;;;3.15;1.40;;;19.50;56.80;21.70;93960.00;;;;10435041;28;45209;-56
2022/09/01 14:11:29;;;;;;;6.95;1.63;;;19.60;56.40;21.70;93963.00;;;;10448831;28;45365;-60
2022/09/01 14:16:50;;;;;;;4.05;1.60;;;19.60;56.50;21.70;93950.00;;;;10461493;28;45215;-57
2022/09/01 14:22:11;;;;;;;3.67;1.38;;;19.70;56.30;21.70;93948.00;;;;10461172;28;45228;-61
2022/09/01 14:27:33;;;;;;;4.50;2.05;;;19.70;56.40;21.70;93954.00;;;;10473326;28;45553;-60
2022/09/01 14:32:53;;;;;;;2.50;1.05;;;19.60;56.50;21.70;93948.00;;;;10442575;28;46503;-62
2022/09/01 14:38:14;;;;;;;2.42;1.42;;;19.60;56.60;21.70;93950.00;;;;10432706;28;45252;-60
2022/09/01 14:43:41;;;;;;;3.00;1.50;;;19.60;56.50;21.70;93934.00;;;;10452500;28;45831;-61
2022/09/01 14:49:03;;;;;;;2.57;1.27;;;19.60;56.60;21.70;93945.00;;;;10433582;28;45204;-58
2022/09/01 14:54:24;;;;;;;2.50;1.27;;;19.60;56.70;21.70;93939.00;;;;10432565;28;45135;-58
2022/09/01 14:59:47;;;;;;;3.33;1.38;;;19.60;56.70;21.70;93953.00;;;;10472012;28;45171;-60
2022/09/01 15:05:09;;;;;;;3.03;1.23;;;19.70;56.70;21.80;93947.00;;;;10453223;28;45183;-58
2022/09/01 15:10:31;;;;;;;2.35;1.27;;;19.70;56.70;21.80;93945.00;;;;10431996;28;45340;-62
2022/09/01 15:15:53;;;;;;;2.25;1.02;;;19.70;56.60;21.80;93946.00;;;;10431801;28;45692;-58
2022/09/01 15:21:20;;;;;;;2.30;1.08;;;19.70;56.70;21.80;93951.00;;;;10431093;28;45229;-59
2022/09/01 15:26:43;;;;;;;2.55;1.15;;;19.70;56.50;21.80;93938.00;;;;10444285;28;45886;-61
2022/09/01 15:32:05;;;;;;;2.40;1.00;;;19.70;56.50;21.80;93935.00;;;;10443277;28;45239;-60
2022/09/01 15:37:26;;;;;;;2.53;1.13;;;19.70;56.50;21.80;93925.00;;;;10431236;28;45157;-60
2022/09/01 15:42:47;;;;;;;1.50;0.88;;;19.80;56.30;21.80;93937.00;;;;10447452;28;45311;-58
2022/09/01 15:48:08;;;;;;;1.67;0.88;;;19.70;55.80;21.80;93944.00;;;;10431915;28;46267;-62
2022/09/01 15:53:29;;;;;;;2.13;1.05;;;19.70;55.80;21.80;93935.00;;;;10430833;28;45614;-62
2022/09/01 15:58:50;;;;;;;1.23;0.98;;;19.70;55.90;21.90;93928.00;;;;10439608;28;45826;-61
2022/09/01 16:04:15;;;;;;;2.22;1.00;;;19.80;55.90;21.90;93927.00;;;;10441541;28;45178;-61
2022/09/01 16:09:36;;;;;;;1.52;0.80;;;19.80;55.90;21.90;93920.00;;;;10448213;28;45396;-61
2022/09/01 16:14:57;;;;;;;2.53;1.00;;;19.80;56.00;21.90;93929.00;;;;10446723;28;45476;-59
2022/09/01 16:20:25;;;;;;;1.65;0.82;;;19.90;56.00;21.90;93930.00;;;;10469853;28;45370;-58
2022/09/01 16:25:46;;;;;;;1.73;0.80;;;19.90;56.00;22.00;93925.00;;;;10432833;28;45446;-62
2022/09/01 16:31:13;;;;;;;1.20;0.63;;;19.90;55.80;22.00;93926.00;;;;10443670;28;45064;-60
2022/09/01 16:36:50;;;;;;;0.60;0.57;;;19.90;55.80;22.00;93925.00;;;;10449163;28;45933;-60
2022/09/01 16:42:25;;;;;;;2.47;0.60;;;20.00;55.30;22.00;93928.00;;;;10425521;28;45265;-60
2022/09/01 16:47:58;;;;;;;1.50;0.77;;;19.90;55.60;22.00;93923.00;;;;10440890;28;45200;-60
2022/09/01 16:53:39;;;;;;;2.42;0.80;;;20.00;55.70;22.00;93924.00;;;;10424030;28;45249;-60
2022/09/01 16:59:19;;;;;;;1.35;0.75;;;19.90;55.90;21.90;93915.00;;;;10461820;28;45265;-60
2022/09/01 17:04:47;;;;;;;1.73;0.93;;;19.90;55.90;21.90;93908.00;;;;10433033;28;45317;-61
2022/09/01 17:10:19;;;;;;;;;;;19.80;56.10;21.80;93915.00;;;;10457192;28;45169;-60
2022/09/01 17:15:40;;;;;;;1.88;0.73;;;19.80;56.20;21.80;93931.00;;;;10458047;28;45843;-61
2022/09/01 17:21:09;;;;;;;1.45;0.80;;;19.80;56.20;21.80;93908.00;;;;10457688;28;45248;-59
2022/09/01 17:26:32;;;;;;;1.05;0.70;;;19.80;56.30;21.80;93913.00;;;;10466021;28;46086;-60
2022/09/01 17:32:01;;;;;;;1.80;0.80;;;19.80;56.40;21.80;93907.00;;;;10424285;28;45668;-60
2022/09/01 17:37:31;;;;;;;1.33;0.77;;;19.70;56.50;21.80;93922.00;;;;10448193;28;45627;-59
2022/09/01 17:43:03;;;;;;;0.90;0.60;;;19.70;56.50;21.80;93930.00;;;;10430113;28;45251;-59
2022/09/01 17:48:39;;;;;;;1.40;0.65;;;19.70;56.50;21.70;93924.00;;;;10436173;28;45687;-59
2022/09/01 17:54:15;;;;;;;1.17;0.85;;;19.70;56.70;21.70;93940.00;;;;10424667;28;45257;-58
2022/09/01 17:59:46;;;;;;;1.10;0.70;;;19.60;56.70;21.70;93925.00;;;;10462459;28;45917;-59
2022/09/01 18:05:11;;;;;;;1.52;0.90;;;19.60;56.70;21.70;93938.00;;;;10440086;28;45322;-58
2022/09/01 18:10:38;;;;;;;1.00;0.77;;;19.60;56.80;21.70;93932.00;;;;10440748;28;45336;-60
2022/09/01 18:16:03;;;;;;;;;;;19.50;56.90;21.70;93932.00;;;;10448933;28;45887;-59
2022/09/01 18:21:29;;;;;;;1.98;0.70;;;19.50;56.90;21.70;93936.00;;;;10455652;28;45458;-60
2022/09/01 18:26:52;;;;;;;1.23;0.70;;;19.50;56.90;21.70;93943.00;;;;10457223;28;45461;-58
2022/09/01 18:32:29;;;;;;;0.60;0.60;;;19.50;57.10;21.60;93954.00;;;;10464538;28;46114;-60
2022/09/01 18:38:19;;;;;;;0.60;0.60;;;19.50;57.10;21.60;93954.00;;;;10457160;28;45196;-58
2022/09/01 18:43:45;;;;;;;1.00;0.68;;;19.40;57.10;21.60;93967.00;;;;10461371;28;45382;-60
2022/09/01 18:49:15;;;;;;;0.88;0.73;;;19.50;57.10;21.60;93956.00;;;;10443231;28;45182;-59
2022/09/01 18:54:41;;;;;;;1.88;0.77;;;19.50;57.10;21.60;93967.00;;;;10445671;28;45184;-60
2022/09/01 19:00:10;;;;;;;1.13;0.70;;;19.50;57.10;21.60;93953.00;;;;10446708;28;45750;-59
2022/09/01 19:05:53;;;;;;;0.98;0.70;;;19.40;57.10;21.60;93965.00;;;;10458020;28;45729;-59
2022/09/01 19:11:24;;;;;;;1.30;0.90;;;19.40;57.00;21.60;93970.00;;;;10429457;28;45759;-57
2022/09/01 19:17:04;;;;;;;1.00;0.70;;;19.40;57.10;21.60;93967.00;;;;10429811;28;45118;-59
2022/09/01 19:22:47;;;;;;;1.73;0.85;;;19.40;57.10;21.60;93959.00;;;;10430904;28;45181;-60
2022/09/01 19:28:24;;;;;;;0.80;0.70;;;19.40;57.10;21.50;93958.00;;;;10431026;28;45571;-60
2022/09/01 19:33:49;;;;;;;1.75;0.80;;;19.40;57.20;21.50;93945.00;;;;10432063;28;45862;-60
2022/09/01 19:39:16;;;;;;;0.82;0.70;;;19.40;57.10;21.50;93956.00;;;;10460474;28;45795;-59
2022/09/01 19:44:43;;;;;;;0.70;0.70;;;19.40;57.20;21.50;93955.00;;;;10464225;28;45210;-59
2022/09/01 19:50:13;;;;;;;0.70;0.70;;;19.40;57.20;21.50;93953.00;;;;10426022;28;45478;-60
2022/09/01 19:55:46;;;;;;;1.20;0.90;;;19.30;57.20;21.50;93938.00;;;;10461176;28;46621;-59
2022/09/01 20:01:12;;;;;;;1.20;0.90;;;19.30;57.30;21.50;93949.00;;;;10469273;28;45138;-60
2022/09/01 20:06:36;;;;;;;1.00;0.90;;;19.30;57.30;21.50;93948.00;;;;10459102;28;45496;-59
2022/09/01 20:12:08;;;;;;;0.90;0.80;;;19.30;57.30;21.50;93931.00;;;;10464424;28;45201;-60
2022/09/01 20:17:35;;;;;;;1.50;0.80;;;19.30;57.30;21.50;93926.00;;;;10429741;28;45404;-60
2022/09/01 20:23:04;;;;;;;1.40;1.00;;;19.30;57.30;21.40;93921.00;;;;10431555;28;45274;-60
2022/09/01 20:28:38;;;;;;;1.33;0.93;;;19.30;57.30;21.40;93934.00;;;;10443932;28;45229;-59
2022/09/01 20:34:06;;;;;;;1.25;0.88;;;19.30;57.30;21.40;93928.00;;;;10428667;28;45170;-59
2022/09/01 20:45:21;;;;;;;0.85;0.80;;;19.30;57.30;21.40;93932.00;;;;10428700;28;45232;-60
2022/09/01 20:50:51;;;;;;;1.77;0.98;;;19.20;57.30;21.40;93934.00;;;;10459639;28;45711;-59
2022/09/01 20:56:21;;;;;;;1.40;1.00;;;19.30;57.30;21.40;93916.00;;;;10470016;28;45306;-60
2022/09/01 21:02:01;;;;;;;1.00;0.90;;;19.30;57.30;21.40;93919.00;;;;10463878;28;45796;-61
2022/09/01 21:07:31;;;;;;;2.17;1.10;;;19.20;57.30;21.40;93939.00;;;;10427624;28;45141;-60
2022/09/01 21:13:10;;;;;;;1.10;0.80;;;19.20;57.30;21.40;93930.00;;;;10427597;28;45188;-60
2022/09/01 21:18:50;;;;;;;1.10;0.80;;;19.30;57.40;21.40;93930.00;;;;10426580;28;45842;-60
2022/09/01 21:24:11;;;;;;;1.02;0.88;;;19.20;57.30;21.40;93919.00;;;;10443786;28;45249;-61
2022/09/01 21:29:49;;;;;;;1.27;0.90;;;19.20;57.30;21.40;93932.00;;;;10434834;28;45282;-60
2022/09/01 21:35:15;;;;;;;0.85;0.80;;;19.20;57.30;21.30;93921.00;;;;10428060;28;45414;-59
2022/09/01 21:40:36;;;;;;;1.00;0.90;;;19.20;57.30;21.30;93913.00;;;;10463026;28;45301;-60
2022/09/01 21:45:57;;;;;;;0.82;0.75;;;19.20;57.30;21.30;93921.00;;;;10475513;28;45143;-60
2022/09/01 21:51:19;;;;;;;1.27;1.00;;;19.20;57.30;21.30;93919.00;;;;10476247;28;45296;-58
2022/09/01 21:56:39;;;;;;;1.27;1.00;;;19.20;57.30;21.30;93913.00;;;;10475457;28;45124;-59
2022/09/01 22:01:59;;;;;;;1.02;0.90;;;19.20;57.30;21.30;93897.00;;;;10475279;28;45166;-60
2022/09/01 22:07:21;;;;;;;2.47;0.90;;;19.20;57.30;21.30;93901.00;;;;10440003;28;45354;-61
2022/09/01 22:12:44;;;;;;;1.25;0.88;;;19.20;57.30;21.30;93903.00;;;;10433735;28;45262;-59
2022/09/01 22:18:05;;;;;;;1.38;0.80;;;19.20;57.40;21.30;93893.00;;;;10433352;28;46112;-59
2022/09/01 22:23:27;;;;;;;1.25;0.90;;;19.20;57.30;21.30;93888.00;;;;10432330;28;45735;-58
2022/09/01 22:28:49;;;;;;;1.35;1.00;;;19.20;57.20;21.30;93880.00;;;;10433202;28;45106;-59
2022/09/01 22:34:09;;;;;;;1.40;0.90;;;19.10;57.10;21.30;93885.00;;;;10462254;28;45133;-60
2022/09/01 22:39:31;;;;;;;1.00;0.80;;;19.20;57.20;21.30;93893.00;;;;10467960;28;45090;-59
2022/09/01 22:44:52;;;;;;;1.13;0.90;;;19.20;57.10;21.30;93887.00;;;;10469981;28;45306;-59
2022/09/01 22:50:13;;;;;;;0.85;0.68;;;19.20;57.10;21.30;93895.00;;;;10444756;28;45212;-60
2022/09/01 22:55:38;;;;;;;0.88;0.80;;;19.20;57.00;21.30;93895.00;;;;10434793;28;45625;-60
2022/09/01 23:00:59;;;;;;;0.90;0.60;;;19.20;57.10;21.30;93885.00;;;;10432110;28;45150;-59
2022/09/01 23:06:22;;;;;;;1.25;1.00;;;19.20;57.00;21.30;93874.00;;;;10441086;28;45861;-60
2022/09/01 23:11:45;;;;;;;0.70;0.70;;;19.20;56.90;21.30;93870.00;;;;10432504;28;45438;-59
2022/09/01 23:17:06;;;;;;;1.08;0.80;;;19.20;56.90;21.30;93855.00;;;;10436677;28;45265;-60
2022/09/01 23:22:26;;;;;;;0.88;0.80;;;19.20;56.80;21.30;93866.00;;;;10431779;28;45288;-59
2022/09/01 23:27:48;;;;;;;1.30;0.80;;;19.20;56.80;21.30;93849.00;;;;10461629;28;45161;-60
2022/09/01 23:33:09;;;;;;;1.25;0.90;;;19.20;56.90;21.30;93850.00;;;;10472195;28;45797;-59
2022/09/01 23:38:30;;;;;;;0.90;0.77;;;19.10;56.80;21.30;93855.00;;;;10468451;28;45118;-60
2022/09/01 23:43:52;;;;;;;0.98;0.88;;;19.20;56.80;21.30;93855.00;;;;10430989;28;45222;-60
2022/09/01 23:49:15;;;;;;;0.85;0.70;;;19.10;56.90;21.30;93839.00;;;;10439418;28;45823;-60
2022/09/01 23:54:36;;;;;;;1.48;0.95;;;19.10;56.80;21.30;93843.00;;;;10430142;28;45304;-58